KAQP

Appleton Municipal Airport

Appleton, Minnesota, USA
METAR KAQP 092131Z AUTO 30004KT 10SM CLR M04/M07 A3028 RMK AO2
Observed Flight Rules
Dec-9 @ 21:31 UTC (27 minutes ago) Visual Flight Rules
Wind Visibility Clouds
300° at 4 knots 10 miles
  • Clear skies
Temperatures Readings
Current -4°C / 25°F
Dewpoint -7°C / 19°F
Humidity 80%
Altimeter 30.28" Hg
Pressure 1025 hPa
Elevation 311
METAR KAQP 092131Z AUTO 30004KT 10SM CLR M04/M07 A3028 RMK AO2
Observed Flight Rules
Dec-9 @ 21:31 UTC
(27 minutes ago)
VFR
Wind Visibility
300° at 4 knots 10 miles
Clouds
  • Clear skies
Temperature Dewpoint
-4°C / 25°F -7°C / 19°F
Humidity Altimeter Pressure
80% 30.28" Hg 1025 hPa